createdAt,value
2019-05-07T00:02:13.460Z,13.65
2019-05-07T00:07:17.437Z,10.63
2019-05-07T00:12:23.062Z,10.15
2019-05-07T00:17:26.962Z,11.30
2019-05-07T00:22:32.677Z,12.75
2019-05-07T00:27:36.646Z,10.28
2019-05-07T00:32:42.398Z,8.70
2019-05-07T00:37:53.786Z,11.70
2019-05-07T00:43:07.937Z,9.90
2019-05-07T00:48:12.656Z,9.73
2019-05-07T00:53:16.729Z,10.38
2019-05-07T00:58:24.202Z,10.72
2019-05-07T01:03:26.600Z,10.30
2019-05-07T01:08:32.169Z,12.07
2019-05-07T01:13:36.205Z,9.68
2019-05-07T01:18:42.093Z,10.53
2019-05-07T01:23:45.709Z,11.43
2019-05-07T01:29:02.882Z,13.80
2019-05-07T01:34:17.818Z,9.65
2019-05-07T01:39:23.154Z,11.40
2019-05-07T01:44:47.454Z,11.55
2019-05-07T01:49:52.397Z,9.53
2019-05-07T01:54:56.839Z,10.08
2019-05-07T02:00:02.570Z,9.63
2019-05-07T02:05:08.845Z,12.95
2019-05-07T02:10:15.721Z,9.03
2019-05-07T02:15:23.314Z,9.28
2019-05-07T02:20:27.217Z,11.18
2019-05-07T02:25:32.739Z,10.10
2019-05-07T02:30:36.685Z,9.03
2019-05-07T02:35:43.558Z,8.98
2019-05-07T02:40:47.736Z,8.18
2019-05-07T02:45:55.745Z,11.00
2019-05-07T02:51:04.310Z,11.48
2019-05-07T02:56:08.375Z,11.45
2019-05-07T03:01:13.736Z,10.03
2019-05-07T03:06:17.844Z,11.22
2019-05-07T03:11:22.906Z,11.08
2019-05-07T03:16:39.837Z,10.70
2019-05-07T03:21:53.465Z,8.38
2019-05-07T03:26:56.466Z,18.90
2019-05-07T03:32:18.519Z,14.70
2019-05-07T03:37:23.995Z,16.80
2019-05-07T03:42:29.480Z,12.75
2019-05-07T03:47:37.796Z,10.93
2019-05-07T03:52:42.858Z,8.65
2019-05-07T03:57:47.134Z,13.50
2019-05-07T04:02:52.769Z,12.50
2019-05-07T04:07:56.763Z,8.65
2019-05-07T04:13:04.193Z,18.15
2019-05-07T04:18:06.202Z,11.40
2019-05-07T04:23:13.474Z,9.83
2019-05-07T04:28:17.175Z,11.85
2019-05-07T04:33:23.997Z,13.08
2019-05-07T04:38:29.183Z,10.20
2019-05-07T04:43:34.402Z,10.63
2019-05-07T04:48:38.266Z,11.75
2019-05-07T04:53:42.958Z,13.50
2019-05-07T04:58:47.125Z,12.78
2019-05-07T05:03:53.219Z,10.60
2019-05-07T05:08:56.560Z,9.93
2019-05-07T05:14:02.736Z,10.75
2019-05-07T05:19:05.997Z,10.58
2019-05-07T05:24:12.606Z,11.10
2019-05-07T05:29:17.037Z,10.05
2019-05-07T05:34:22.291Z,9.28
2019-05-07T05:39:26.406Z,10.70
2019-05-07T05:44:32.168Z,13.60
2019-05-07T05:49:36.145Z,12.43
2019-05-07T05:54:42.630Z,11.63
2019-05-07T06:00:02.450Z,9.98
2019-05-07T06:05:24.050Z,10.40
2019-05-07T06:10:29.508Z,6.45
2019-05-07T06:15:52.193Z,10.10
2019-05-07T06:20:57.820Z,11.65
2019-05-07T06:26:05.060Z,7.62
2019-05-07T06:31:07.307Z,5.72
2019-05-07T06:36:12.538Z,8.53
2019-05-07T06:41:22.649Z,10.13
2019-05-07T06:46:26.582Z,9.85
2019-05-07T06:51:32.660Z,6.65
2019-05-07T06:56:36.049Z,11.05
2019-05-07T07:01:53.559Z,6.37
2019-05-07T07:06:59.033Z,7.08
2019-05-07T07:12:22.293Z,7.83
2019-05-07T07:17:25.222Z,8.15
2019-05-07T07:22:29.113Z,5.47
2019-05-07T07:27:32.976Z,8.10
2019-05-07T07:32:42.504Z,8.28
2019-05-07T07:42:49.542Z,9.45
2019-05-07T07:47:53.453Z,8.08
2019-05-07T07:52:57.365Z,10.15
2019-05-07T07:58:17.838Z,9.48
2019-05-07T08:03:22.605Z,7.40
2019-05-07T08:08:26.598Z,11.30
2019-05-07T08:13:32.355Z,9.35
2019-05-07T08:18:36.072Z,10.85
2019-05-07T08:23:42.254Z,9.43
2019-05-07T08:28:45.421Z,8.53
2019-05-07T08:34:07.067Z,11.12
2019-05-07T08:39:12.973Z,10.95
2019-05-07T08:44:18.035Z,10.90
2019-05-07T08:49:35.740Z,14.18
2019-05-07T08:54:31.964Z,12.68
2019-05-07T08:59:36.224Z,9.60
2019-05-07T09:04:41.777Z,10.65
2019-05-07T09:09:45.838Z,13.72
2019-05-07T09:14:52.926Z,13.43
2019-05-07T09:19:57.073Z,11.28
2019-05-07T09:25:03.133Z,14.70
2019-05-07T09:30:15.817Z,14.65
2019-05-07T09:35:24.788Z,17.87
2019-05-07T09:40:28.724Z,12.73
2019-05-07T09:45:32.987Z,16.23
2019-05-07T09:50:37.164Z,14.10
2019-05-07T09:55:42.552Z,16.02
2019-05-07T10:00:46.923Z,17.95
2019-05-07T10:05:51.876Z,17.15
2019-05-07T10:10:55.922Z,13.10
2019-05-07T10:16:00.493Z,15.68
2019-05-07T10:21:04.753Z,14.63
2019-05-07T10:26:08.810Z,14.47
2019-05-07T10:31:12.936Z,15.72
2019-05-07T10:36:17.095Z,14.38
2019-05-07T10:41:22.363Z,12.65
2019-05-07T10:46:33.867Z,15.70
2019-05-07T10:51:38.039Z,13.75
2019-05-07T10:56:42.061Z,13.08
2019-05-07T11:01:47.831Z,13.35
2019-05-07T11:06:52.369Z,12.60
2019-05-07T11:11:56.558Z,15.63
2019-05-07T11:17:02.659Z,17.95
2019-05-07T11:22:06.709Z,15.45
2019-05-07T11:27:11.964Z,14.07
2019-05-07T11:32:16.081Z,16.62
2019-05-07T11:37:22.457Z,13.85
2019-05-07T11:42:39.154Z,14.18
2019-05-07T11:47:43.076Z,12.93
2019-05-07T11:52:48.584Z,10.93
2019-05-07T11:57:53.696Z,9.83
2019-05-07T12:02:57.677Z,14.18
2019-05-07T12:08:02.382Z,12.93
2019-05-07T12:13:06.589Z,15.43
2019-05-07T12:18:11.923Z,16.95
2019-05-07T12:23:15.999Z,13.20
2019-05-07T12:28:22.274Z,13.38
2019-05-07T12:33:43.698Z,13.80
2019-05-07T12:38:47.570Z,16.52
2019-05-07T12:43:52.011Z,19.37
2019-05-07T12:48:55.889Z,13.68
2019-05-07T12:54:02.947Z,12.28
2019-05-07T12:59:06.958Z,13.93
2019-05-07T13:04:15.234Z,15.63
2019-05-07T13:09:19.146Z,17.45
2019-05-07T13:14:23.031Z,16.57
2019-05-07T13:19:26.926Z,14.20
2019-05-07T13:24:32.110Z,16.82
2019-05-07T13:29:36.365Z,16.25
2019-05-07T13:34:42.545Z,19.80
2019-05-07T13:39:48.290Z,20.30
2019-05-07T13:45:00.086Z,16.93
2019-05-07T13:50:04.604Z,18.35
2019-05-07T13:55:09.247Z,16.73
2019-05-07T14:00:15.761Z,17.70
2019-05-07T14:05:21.694Z,15.38
2019-05-07T14:10:25.325Z,16.80
2019-05-07T14:15:29.269Z,21.97
2019-05-07T14:20:33.199Z,19.25
2019-05-07T14:25:37.098Z,19.15
2019-05-07T14:30:42.116Z,17.65
2019-05-07T14:35:52.046Z,16.82
2019-05-07T14:40:56.108Z,16.15
2019-05-07T14:46:00.029Z,16.50
2019-05-07T14:51:04.149Z,21.25
2019-05-07T14:56:08.085Z,20.32
2019-05-07T15:01:13.412Z,19.40
2019-05-07T15:06:17.336Z,17.77
2019-05-07T15:11:21.524Z,18.57
2019-05-07T15:16:25.581Z,15.28
2019-05-07T15:21:29.620Z,26.15
2019-05-07T15:26:34.791Z,16.23
2019-05-07T15:31:42.254Z,11.83
2019-05-07T15:36:45.801Z,9.88
2019-05-07T15:41:51.677Z,16.77
2019-05-07T15:46:56.829Z,15.68
2019-05-07T15:52:02.757Z,13.60
2019-05-07T15:57:08.246Z,15.60
2019-05-07T16:02:22.709Z,15.23
2019-05-07T16:07:26.641Z,12.25
2019-05-07T16:12:32.000Z,12.88
2019-05-07T16:17:37.598Z,10.75
2019-05-07T16:22:43.049Z,12.50
2019-05-07T16:27:46.950Z,13.80
2019-05-07T16:32:53.358Z,10.25
2019-05-07T16:37:56.494Z,11.75
2019-05-07T16:43:02.602Z,12.03
2019-05-07T16:48:06.010Z,9.05
2019-05-07T16:53:12.080Z,11.22
2019-05-07T16:58:34.895Z,16.32
2019-05-07T17:03:39.242Z,9.65
2019-05-07T17:08:47.345Z,13.35
2019-05-07T17:13:51.898Z,12.98
2019-05-07T17:18:57.763Z,12.53
2019-05-07T17:24:02.515Z,31.40
2019-05-07T17:29:07.927Z,18.15
2019-05-07T17:34:13.706Z,11.97
2019-05-07T17:39:19.768Z,17.23
2019-05-07T17:44:25.214Z,18.10
2019-05-07T17:49:29.099Z,27.07
2019-05-07T17:54:33.751Z,17.00
2019-05-07T17:59:37.613Z,12.68
2019-05-07T18:04:51.011Z,16.27
2019-05-07T18:09:48.657Z,14.85
2019-05-07T18:14:53.146Z,16.32
2019-05-07T18:19:57.036Z,19.32
2019-05-07T18:25:02.318Z,23.10
2019-05-07T18:30:07.532Z,20.30
2019-05-07T18:35:12.607Z,24.00
2019-05-07T18:40:16.866Z,20.15
2019-05-07T18:45:21.791Z,23.15
2019-05-07T18:50:25.981Z,21.35
2019-05-07T18:55:29.942Z,20.40
2019-05-07T19:00:35.385Z,21.15
2019-05-07T19:05:39.273Z,28.17
2019-05-07T19:10:43.323Z,56.28
2019-05-07T19:15:47.288Z,82.17
2019-05-07T19:20:52.944Z,133.45
2019-05-07T19:25:57.795Z,88.15
2019-05-07T19:31:06.117Z,74.58
2019-05-07T19:36:10.711Z,71.28
2019-05-07T19:41:15.024Z,45.43
2019-05-07T19:46:19.130Z,49.90
2019-05-07T19:51:23.290Z,67.90
2019-05-07T19:56:27.172Z,77.72
2019-05-07T20:01:32.629Z,75.80
2019-05-07T20:06:38.624Z,97.10
2019-05-07T20:11:47.370Z,122.33
2019-05-07T20:16:53.157Z,116.20
2019-05-07T20:21:57.107Z,132.52
2019-05-07T20:27:03.095Z,136.15
2019-05-07T20:32:06.775Z,152.47
2019-05-07T20:37:12.746Z,166.77
2019-05-07T20:42:16.267Z,159.40
2019-05-07T20:47:22.016Z,163.72
2019-05-07T20:52:25.734Z,161.50
2019-05-07T20:57:32.002Z,143.02
2019-05-07T21:02:45.477Z,154.72
2019-05-07T21:07:42.376Z,144.02
2019-05-07T21:12:46.595Z,131.60
2019-05-07T21:17:52.449Z,112.40
2019-05-07T21:22:56.032Z,109.37
2019-05-07T21:28:02.060Z,112.10
2019-05-07T21:33:05.665Z,124.15
2019-05-07T21:38:09.561Z,165.15
2019-05-07T21:43:14.172Z,168.43
2019-05-07T21:48:18.340Z,148.93
2019-05-07T21:53:24.232Z,96.92
2019-05-07T21:58:29.783Z,73.85
2019-05-07T22:03:34.994Z,62.80
2019-05-07T22:08:39.182Z,60.00
2019-05-07T22:13:43.663Z,49.73
2019-05-07T22:18:47.711Z,57.90
2019-05-07T22:23:52.174Z,57.13
2019-05-07T22:28:56.190Z,56.45
2019-05-07T22:34:04.436Z,63.73
2019-05-07T22:39:08.526Z,54.53
2019-05-07T22:44:12.625Z,61.80
2019-05-07T22:49:16.496Z,54.00
2019-05-07T22:54:22.412Z,60.45
2019-05-07T22:59:26.116Z,56.83
2019-05-07T23:04:32.365Z,55.20
2019-05-07T23:09:35.588Z,55.15
2019-05-07T23:14:39.459Z,48.52
2019-05-07T23:19:43.707Z,49.75
2019-05-07T23:24:47.584Z,56.60
2019-05-07T23:29:52.973Z,65.78
2019-05-07T23:34:56.948Z,64.12
2019-05-07T23:40:05.106Z,43.70
2019-05-07T23:45:09.250Z,44.10
2019-05-07T23:50:13.172Z,39.63
2019-05-07T23:55:17.054Z,42.50
